sensor_id;sensor_type;location;lat;lon;timestamp;P1;durP1;ratioP1;P2;durP2;ratioP2
13090;SDS011;6611;52.604;13.438;2022-11-04T00:04:02;6.50;;;3.90;;
13090;SDS011;6611;52.604;13.438;2022-11-04T00:09:05;5.13;;;3.67;;
13090;SDS011;6611;52.604;13.438;2022-11-04T00:14:10;6.57;;;4.27;;
13090;SDS011;6611;52.604;13.438;2022-11-04T00:19:12;7.50;;;3.67;;
13090;SDS011;6611;52.604;13.438;2022-11-04T00:24:14;6.90;;;4.13;;
13090;SDS011;6611;52.604;13.438;2022-11-04T00:29:35;5.77;;;3.80;;
13090;SDS011;6611;52.604;13.438;2022-11-04T00:34:36;9.37;;;4.30;;
13090;SDS011;6611;52.604;13.438;2022-11-04T00:39:38;7.47;;;4.47;;
13090;SDS011;6611;52.604;13.438;2022-11-04T00:44:41;7.73;;;4.20;;
13090;SDS011;6611;52.604;13.438;2022-11-04T00:49:42;7.80;;;4.30;;
13090;SDS011;6611;52.604;13.438;2022-11-04T00:54:44;4.50;;;3.97;;
13090;SDS011;6611;52.604;13.438;2022-11-04T00:59:47;8.27;;;4.10;;
13090;SDS011;6611;52.604;13.438;2022-11-04T01:04:48;8.07;;;4.23;;
13090;SDS011;6611;52.604;13.438;2022-11-04T01:09:50;8.00;;;4.60;;
13090;SDS011;6611;52.604;13.438;2022-11-04T01:14:53;6.77;;;4.63;;
13090;SDS011;6611;52.604;13.438;2022-11-04T01:19:54;8.27;;;4.80;;
13090;SDS011;6611;52.604;13.438;2022-11-04T01:24:56;8.63;;;4.77;;
13090;SDS011;6611;52.604;13.438;2022-11-04T01:29:59;8.00;;;5.10;;
13090;SDS011;6611;52.604;13.438;2022-11-04T01:35:00;7.47;;;5.00;;
13090;SDS011;6611;52.604;13.438;2022-11-04T01:40:02;7.57;;;4.47;;
13090;SDS011;6611;52.604;13.438;2022-11-04T01:45:07;8.00;;;4.23;;
13090;SDS011;6611;52.604;13.438;2022-11-04T01:50:14;10.23;;;5.13;;
13090;SDS011;6611;52.604;13.438;2022-11-04T01:55:19;7.10;;;4.67;;
13090;SDS011;6611;52.604;13.438;2022-11-04T02:00:24;9.77;;;5.37;;
13090;SDS011;6611;52.604;13.438;2022-11-04T02:05:26;6.87;;;4.47;;
13090;SDS011;6611;52.604;13.438;2022-11-04T02:10:29;6.70;;;4.87;;
13090;SDS011;6611;52.604;13.438;2022-11-04T02:15:36;7.20;;;4.93;;
13090;SDS011;6611;52.604;13.438;2022-11-04T02:20:57;8.27;;;5.07;;
13090;SDS011;6611;52.604;13.438;2022-11-04T02:26:22;6.40;;;5.03;;
13090;SDS011;6611;52.604;13.438;2022-11-04T02:31:42;8.67;;;5.43;;
13090;SDS011;6611;52.604;13.438;2022-11-04T02:36:56;8.77;;;4.73;;
13090;SDS011;6611;52.604;13.438;2022-11-04T02:42:08;8.30;;;5.17;;
13090;SDS011;6611;52.604;13.438;2022-11-04T02:47:14;9.43;;;5.10;;
13090;SDS011;6611;52.604;13.438;2022-11-04T02:52:21;9.53;;;5.07;;
13090;SDS011;6611;52.604;13.438;2022-11-04T02:57:28;6.47;;;4.87;;
13090;SDS011;6611;52.604;13.438;2022-11-04T03:02:34;8.67;;;5.17;;
13090;SDS011;6611;52.604;13.438;2022-11-04T03:07:40;9.17;;;4.90;;
13090;SDS011;6611;52.604;13.438;2022-11-04T03:12:45;9.17;;;4.87;;
13090;SDS011;6611;52.604;13.438;2022-11-04T03:17:53;9.70;;;5.70;;
13090;SDS011;6611;52.604;13.438;2022-11-04T03:22:59;8.27;;;5.40;;
13090;SDS011;6611;52.604;13.438;2022-11-04T03:28:03;10.03;;;4.90;;
13090;SDS011;6611;52.604;13.438;2022-11-04T03:33:14;12.17;;;5.33;;
13090;SDS011;6611;52.604;13.438;2022-11-04T03:38:24;9.70;;;5.20;;
13090;SDS011;6611;52.604;13.438;2022-11-04T03:43:26;8.40;;;5.27;;
13090;SDS011;6611;52.604;13.438;2022-11-04T03:48:30;8.37;;;5.13;;
13090;SDS011;6611;52.604;13.438;2022-11-04T03:53:32;7.87;;;4.97;;
13090;SDS011;6611;52.604;13.438;2022-11-04T03:58:35;8.90;;;5.33;;
13090;SDS011;6611;52.604;13.438;2022-11-04T04:03:45;10.83;;;5.30;;
13090;SDS011;6611;52.604;13.438;2022-11-04T04:08:52;8.90;;;5.90;;
13090;SDS011;6611;52.604;13.438;2022-11-04T04:14:02;9.07;;;5.77;;
13090;SDS011;6611;52.604;13.438;2022-11-04T04:19:09;9.67;;;5.87;;
13090;SDS011;6611;52.604;13.438;2022-11-04T04:24:14;7.80;;;5.50;;
13090;SDS011;6611;52.604;13.438;2022-11-04T04:29:36;9.77;;;6.00;;
13090;SDS011;6611;52.604;13.438;2022-11-04T04:34:39;8.37;;;5.47;;
13090;SDS011;6611;52.604;13.438;2022-11-04T04:39:42;8.13;;;5.50;;
13090;SDS011;6611;52.604;13.438;2022-11-04T04:45:04;9.27;;;5.47;;
13090;SDS011;6611;52.604;13.438;2022-11-04T04:50:09;10.93;;;5.30;;
13090;SDS011;6611;52.604;13.438;2022-11-04T04:55:13;12.33;;;6.00;;
13090;SDS011;6611;52.604;13.438;2022-11-04T05:00:16;9.23;;;5.77;;
13090;SDS011;6611;52.604;13.438;2022-11-04T05:05:21;8.30;;;6.03;;
13090;SDS011;6611;52.604;13.438;2022-11-04T05:10:22;11.93;;;6.20;;
13090;SDS011;6611;52.604;13.438;2022-11-04T05:15:24;9.57;;;5.70;;
13090;SDS011;6611;52.604;13.438;2022-11-04T05:20:27;10.07;;;5.90;;
13090;SDS011;6611;52.604;13.438;2022-11-04T05:25:33;10.73;;;5.80;;
13090;SDS011;6611;52.604;13.438;2022-11-04T05:30:34;9.07;;;6.13;;
13090;SDS011;6611;52.604;13.438;2022-11-04T05:35:37;13.07;;;5.77;;
13090;SDS011;6611;52.604;13.438;2022-11-04T05:40:39;11.70;;;5.67;;
13090;SDS011;6611;52.604;13.438;2022-11-04T05:45:41;7.73;;;5.10;;
13090;SDS011;6611;52.604;13.438;2022-11-04T05:50:44;8.67;;;5.63;;
13090;SDS011;6611;52.604;13.438;2022-11-04T05:55:45;9.83;;;5.67;;
13090;SDS011;6611;52.604;13.438;2022-11-04T06:00:47;13.20;;;5.97;;
13090;SDS011;6611;52.604;13.438;2022-11-04T06:05:50;9.50;;;5.53;;
13090;SDS011;6611;52.604;13.438;2022-11-04T06:10:51;9.77;;;5.57;;
13090;SDS011;6611;52.604;13.438;2022-11-04T06:15:53;9.10;;;6.07;;
13090;SDS011;6611;52.604;13.438;2022-11-04T06:21:06;8.23;;;5.57;;
13090;SDS011;6611;52.604;13.438;2022-11-04T06:26:20;9.63;;;5.27;;
13090;SDS011;6611;52.604;13.438;2022-11-04T06:31:21;9.60;;;5.67;;
13090;SDS011;6611;52.604;13.438;2022-11-04T06:36:24;8.93;;;5.80;;
13090;SDS011;6611;52.604;13.438;2022-11-04T06:41:26;8.87;;;5.80;;
13090;SDS011;6611;52.604;13.438;2022-11-04T06:46:29;12.10;;;6.30;;
13090;SDS011;6611;52.604;13.438;2022-11-04T06:51:35;11.17;;;6.27;;
13090;SDS011;6611;52.604;13.438;2022-11-04T06:56:37;11.57;;;5.93;;
13090;SDS011;6611;52.604;13.438;2022-11-04T07:01:39;8.47;;;5.80;;
13090;SDS011;6611;52.604;13.438;2022-11-04T07:06:42;11.70;;;6.43;;
13090;SDS011;6611;52.604;13.438;2022-11-04T07:11:44;10.50;;;6.20;;
13090;SDS011;6611;52.604;13.438;2022-11-04T07:16:48;8.13;;;5.57;;
13090;SDS011;6611;52.604;13.438;2022-11-04T07:21:51;9.23;;;6.07;;
13090;SDS011;6611;52.604;13.438;2022-11-04T07:26:53;8.73;;;6.37;;
13090;SDS011;6611;52.604;13.438;2022-11-04T07:31:54;8.60;;;5.77;;
13090;SDS011;6611;52.604;13.438;2022-11-04T07:36:57;8.63;;;6.10;;
13090;SDS011;6611;52.604;13.438;2022-11-04T07:41:59;10.97;;;6.47;;
13090;SDS011;6611;52.604;13.438;2022-11-04T07:47:00;11.60;;;7.40;;
13090;SDS011;6611;52.604;13.438;2022-11-04T07:52:03;11.20;;;7.53;;
13090;SDS011;6611;52.604;13.438;2022-11-04T07:57:05;10.93;;;6.97;;
13090;SDS011;6611;52.604;13.438;2022-11-04T08:02:07;11.57;;;6.70;;
13090;SDS011;6611;52.604;13.438;2022-11-04T08:07:11;13.33;;;7.63;;
13090;SDS011;6611;52.604;13.438;2022-11-04T08:12:12;12.03;;;7.20;;
13090;SDS011;6611;52.604;13.438;2022-11-04T08:17:14;9.30;;;7.20;;
13090;SDS011;6611;52.604;13.438;2022-11-04T08:22:17;10.80;;;7.90;;
13090;SDS011;6611;52.604;13.438;2022-11-04T08:27:18;10.60;;;8.37;;
13090;SDS011;6611;52.604;13.438;2022-11-04T08:32:20;10.23;;;7.70;;
13090;SDS011;6611;52.604;13.438;2022-11-04T08:37:23;11.60;;;7.20;;
13090;SDS011;6611;52.604;13.438;2022-11-04T08:42:25;11.63;;;6.77;;
13090;SDS011;6611;52.604;13.438;2022-11-04T08:47:26;11.60;;;7.50;;
13090;SDS011;6611;52.604;13.438;2022-11-04T08:52:29;10.03;;;6.57;;
13090;SDS011;6611;52.604;13.438;2022-11-04T08:57:31;10.80;;;6.40;;
13090;SDS011;6611;52.604;13.438;2022-11-04T09:02:32;8.63;;;6.40;;
13090;SDS011;6611;52.604;13.438;2022-11-04T09:07:36;8.33;;;6.10;;
13090;SDS011;6611;52.604;13.438;2022-11-04T09:12:37;9.03;;;5.63;;
13090;SDS011;6611;52.604;13.438;2022-11-04T09:17:39;8.30;;;5.80;;
13090;SDS011;6611;52.604;13.438;2022-11-04T09:22:44;8.10;;;5.70;;
13090;SDS011;6611;52.604;13.438;2022-11-04T09:27:49;10.03;;;5.47;;
13090;SDS011;6611;52.604;13.438;2022-11-04T09:32:50;8.13;;;5.17;;
13090;SDS011;6611;52.604;13.438;2022-11-04T09:37:53;7.57;;;5.00;;
13090;SDS011;6611;52.604;13.438;2022-11-04T09:43:02;6.73;;;4.70;;
13090;SDS011;6611;52.604;13.438;2022-11-04T09:48:25;6.80;;;5.20;;
13090;SDS011;6611;52.604;13.438;2022-11-04T09:53:34;5.83;;;4.83;;
13090;SDS011;6611;52.604;13.438;2022-11-04T09:58:40;8.13;;;5.03;;
13090;SDS011;6611;52.604;13.438;2022-11-04T10:03:46;5.93;;;4.23;;
13090;SDS011;6611;52.604;13.438;2022-11-04T10:14:37;5.40;;;4.00;;
13090;SDS011;6611;52.604;13.438;2022-11-04T10:20:02;7.47;;;4.93;;
13090;SDS011;6611;52.604;13.438;2022-11-04T10:25:21;6.73;;;4.57;;
13090;SDS011;6611;52.604;13.438;2022-11-04T10:30:25;6.80;;;4.50;;
13090;SDS011;6611;52.604;13.438;2022-11-04T10:35:30;6.97;;;4.03;;
13090;SDS011;6611;52.604;13.438;2022-11-04T10:40:36;6.07;;;4.43;;
13090;SDS011;6611;52.604;13.438;2022-11-04T10:45:40;7.13;;;4.67;;
13090;SDS011;6611;52.604;13.438;2022-11-04T10:50:51;6.83;;;4.57;;
13090;SDS011;6611;52.604;13.438;2022-11-04T10:55:58;6.87;;;4.93;;
13090;SDS011;6611;52.604;13.438;2022-11-04T11:06:27;6.03;;;4.50;;
13090;SDS011;6611;52.604;13.438;2022-11-04T11:11:38;7.07;;;4.87;;
13090;SDS011;6611;52.604;13.438;2022-11-04T11:16:44;7.60;;;5.23;;
13090;SDS011;6611;52.604;13.438;2022-11-04T11:21:47;7.13;;;5.00;;
13090;SDS011;6611;52.604;13.438;2022-11-04T11:26:51;5.23;;;4.27;;
13090;SDS011;6611;52.604;13.438;2022-11-04T11:31:55;7.33;;;4.60;;
13090;SDS011;6611;52.604;13.438;2022-11-04T11:36:59;6.23;;;4.97;;
13090;SDS011;6611;52.604;13.438;2022-11-04T11:42:05;6.40;;;5.03;;
13090;SDS011;6611;52.604;13.438;2022-11-04T11:47:17;6.83;;;5.30;;
13090;SDS011;6611;52.604;13.438;2022-11-04T11:52:26;6.43;;;4.70;;
13090;SDS011;6611;52.604;13.438;2022-11-04T11:57:37;5.93;;;5.07;;
13090;SDS011;6611;52.604;13.438;2022-11-04T12:02:46;5.63;;;4.57;;
13090;SDS011;6611;52.604;13.438;2022-11-04T12:07:54;6.00;;;4.80;;
13090;SDS011;6611;52.604;13.438;2022-11-04T12:13:08;7.33;;;5.30;;
13090;SDS011;6611;52.604;13.438;2022-11-04T12:23:50;6.53;;;4.83;;
13090;SDS011;6611;52.604;13.438;2022-11-04T12:29:01;7.10;;;5.07;;
13090;SDS011;6611;52.604;13.438;2022-11-04T12:34:15;7.50;;;5.47;;
13090;SDS011;6611;52.604;13.438;2022-11-04T12:39:29;6.93;;;5.13;;
13090;SDS011;6611;52.604;13.438;2022-11-04T12:44:52;7.63;;;6.03;;
13090;SDS011;6611;52.604;13.438;2022-11-04T12:50:05;9.77;;;6.50;;
13090;SDS011;6611;52.604;13.438;2022-11-04T12:55:20;12.43;;;8.50;;
13090;SDS011;6611;52.604;13.438;2022-11-04T13:00:29;6.67;;;5.63;;
13090;SDS011;6611;52.604;13.438;2022-11-04T13:05:35;6.63;;;5.40;;
13090;SDS011;6611;52.604;13.438;2022-11-04T13:10:42;6.67;;;5.40;;
13090;SDS011;6611;52.604;13.438;2022-11-04T13:15:50;9.57;;;5.10;;
13090;SDS011;6611;52.604;13.438;2022-11-04T13:20:56;7.33;;;5.70;;
13090;SDS011;6611;52.604;13.438;2022-11-04T13:26:02;7.10;;;5.63;;
13090;SDS011;6611;52.604;13.438;2022-11-04T13:31:09;6.17;;;5.47;;
13090;SDS011;6611;52.604;13.438;2022-11-04T13:36:19;6.40;;;5.70;;
13090;SDS011;6611;52.604;13.438;2022-11-04T13:41:31;8.30;;;6.10;;
13090;SDS011;6611;52.604;13.438;2022-11-04T13:46:47;8.53;;;5.80;;
13090;SDS011;6611;52.604;13.438;2022-11-04T13:51:59;6.53;;;5.47;;
13090;SDS011;6611;52.604;13.438;2022-11-04T13:57:03;7.17;;;6.00;;
13090;SDS011;6611;52.604;13.438;2022-11-04T14:02:31;6.43;;;5.23;;
13090;SDS011;6611;52.604;13.438;2022-11-04T14:18:48;7.43;;;6.10;;
13090;SDS011;6611;52.604;13.438;2022-11-04T14:23:51;7.63;;;6.37;;
13090;SDS011;6611;52.604;13.438;2022-11-04T14:28:59;7.60;;;5.87;;
13090;SDS011;6611;52.604;13.438;2022-11-04T14:34:04;8.30;;;6.40;;
13090;SDS011;6611;52.604;13.438;2022-11-04T14:39:18;12.03;;;7.67;;
13090;SDS011;6611;52.604;13.438;2022-11-04T14:44:25;9.63;;;6.93;;
13090;SDS011;6611;52.604;13.438;2022-11-04T14:49:39;10.07;;;6.97;;
13090;SDS011;6611;52.604;13.438;2022-11-04T14:54:44;9.70;;;7.13;;
13090;SDS011;6611;52.604;13.438;2022-11-04T14:59:46;8.80;;;7.13;;
13090;SDS011;6611;52.604;13.438;2022-11-04T15:04:54;10.10;;;7.23;;
13090;SDS011;6611;52.604;13.438;2022-11-04T15:09:57;11.20;;;7.37;;
13090;SDS011;6611;52.604;13.438;2022-11-04T15:14:59;8.97;;;7.10;;
13090;SDS011;6611;52.604;13.438;2022-11-04T15:20:02;10.00;;;7.57;;
13090;SDS011;6611;52.604;13.438;2022-11-04T15:25:05;12.10;;;7.87;;
13090;SDS011;6611;52.604;13.438;2022-11-04T15:30:17;10.77;;;7.27;;
13090;SDS011;6611;52.604;13.438;2022-11-04T15:35:22;8.20;;;6.83;;
13090;SDS011;6611;52.604;13.438;2022-11-04T15:40:24;9.97;;;7.10;;
13090;SDS011;6611;52.604;13.438;2022-11-04T15:45:29;9.40;;;7.13;;
13090;SDS011;6611;52.604;13.438;2022-11-04T15:50:36;7.80;;;6.87;;
13090;SDS011;6611;52.604;13.438;2022-11-04T15:55:38;9.53;;;7.53;;
13090;SDS011;6611;52.604;13.438;2022-11-04T16:00:40;8.63;;;6.60;;
13090;SDS011;6611;52.604;13.438;2022-11-04T16:05:48;11.80;;;7.53;;
13090;SDS011;6611;52.604;13.438;2022-11-04T16:11:08;8.67;;;6.53;;
13090;SDS011;6611;52.604;13.438;2022-11-04T16:16:19;9.13;;;6.67;;
13090;SDS011;6611;52.604;13.438;2022-11-04T16:21:26;8.37;;;6.67;;
13090;SDS011;6611;52.604;13.438;2022-11-04T16:26:30;11.23;;;7.27;;
13090;SDS011;6611;52.604;13.438;2022-11-04T16:31:37;9.80;;;7.90;;
13090;SDS011;6611;52.604;13.438;2022-11-04T16:36:40;12.00;;;8.13;;
13090;SDS011;6611;52.604;13.438;2022-11-04T16:41:42;9.73;;;7.13;;
13090;SDS011;6611;52.604;13.438;2022-11-04T16:46:43;9.83;;;7.33;;
13090;SDS011;6611;52.604;13.438;2022-11-04T16:51:47;8.27;;;6.93;;
13090;SDS011;6611;52.604;13.438;2022-11-04T16:56:53;10.80;;;7.17;;
13090;SDS011;6611;52.604;13.438;2022-11-04T17:01:55;8.70;;;7.00;;
13090;SDS011;6611;52.604;13.438;2022-11-04T17:06:58;10.20;;;7.57;;
13090;SDS011;6611;52.604;13.438;2022-11-04T17:11:59;10.03;;;7.30;;
13090;SDS011;6611;52.604;13.438;2022-11-04T17:17:01;7.63;;;6.27;;
13090;SDS011;6611;52.604;13.438;2022-11-04T17:22:04;10.77;;;7.37;;
13090;SDS011;6611;52.604;13.438;2022-11-04T17:27:08;7.17;;;6.30;;
13090;SDS011;6611;52.604;13.438;2022-11-04T17:32:09;8.53;;;7.03;;
13090;SDS011;6611;52.604;13.438;2022-11-04T17:37:12;9.23;;;7.33;;
13090;SDS011;6611;52.604;13.438;2022-11-04T17:42:14;8.73;;;6.70;;
13090;SDS011;6611;52.604;13.438;2022-11-04T17:47:33;9.53;;;7.60;;
13090;SDS011;6611;52.604;13.438;2022-11-04T17:52:36;8.60;;;6.93;;
13090;SDS011;6611;52.604;13.438;2022-11-04T17:57:39;9.83;;;7.53;;
13090;SDS011;6611;52.604;13.438;2022-11-04T18:02:41;10.20;;;7.27;;
13090;SDS011;6611;52.604;13.438;2022-11-04T18:07:44;9.10;;;7.37;;
13090;SDS011;6611;52.604;13.438;2022-11-04T18:12:45;10.97;;;7.80;;
13090;SDS011;6611;52.604;13.438;2022-11-04T18:17:47;9.37;;;7.03;;
13090;SDS011;6611;52.604;13.438;2022-11-04T18:22:51;10.03;;;7.70;;
13090;SDS011;6611;52.604;13.438;2022-11-04T18:27:52;10.83;;;7.10;;
13090;SDS011;6611;52.604;13.438;2022-11-04T18:32:54;11.13;;;7.60;;
13090;SDS011;6611;52.604;13.438;2022-11-04T18:37:57;9.73;;;7.13;;
13090;SDS011;6611;52.604;13.438;2022-11-04T18:42:59;9.53;;;7.63;;
13090;SDS011;6611;52.604;13.438;2022-11-04T18:48:09;10.17;;;7.33;;
13090;SDS011;6611;52.604;13.438;2022-11-04T18:53:10;10.10;;;7.60;;
13090;SDS011;6611;52.604;13.438;2022-11-04T18:58:12;9.17;;;7.57;;
13090;SDS011;6611;52.604;13.438;2022-11-04T19:03:15;11.93;;;8.20;;
13090;SDS011;6611;52.604;13.438;2022-11-04T19:08:17;10.67;;;7.47;;
13090;SDS011;6611;52.604;13.438;2022-11-04T19:13:18;12.10;;;8.07;;
13090;SDS011;6611;52.604;13.438;2022-11-04T19:18:21;9.97;;;7.67;;
13090;SDS011;6611;52.604;13.438;2022-11-04T19:23:23;11.00;;;8.57;;
13090;SDS011;6611;52.604;13.438;2022-11-04T19:28:25;11.30;;;7.90;;
13090;SDS011;6611;52.604;13.438;2022-11-04T19:33:28;10.37;;;8.13;;
13090;SDS011;6611;52.604;13.438;2022-11-04T19:38:30;10.03;;;7.80;;
13090;SDS011;6611;52.604;13.438;2022-11-04T19:43:32;10.90;;;8.70;;
13090;SDS011;6611;52.604;13.438;2022-11-04T19:48:35;9.50;;;7.73;;
13090;SDS011;6611;52.604;13.438;2022-11-04T19:53:36;9.97;;;7.87;;
13090;SDS011;6611;52.604;13.438;2022-11-04T19:58:38;11.47;;;8.60;;
13090;SDS011;6611;52.604;13.438;2022-11-04T20:03:41;10.07;;;8.03;;
13090;SDS011;6611;52.604;13.438;2022-11-04T20:08:44;11.30;;;7.93;;
13090;SDS011;6611;52.604;13.438;2022-11-04T20:13:47;11.13;;;8.23;;
13090;SDS011;6611;52.604;13.438;2022-11-04T20:18:52;11.83;;;8.10;;
13090;SDS011;6611;52.604;13.438;2022-11-04T20:23:56;11.17;;;8.27;;
13090;SDS011;6611;52.604;13.438;2022-11-04T20:28:58;11.97;;;8.80;;
13090;SDS011;6611;52.604;13.438;2022-11-04T20:34:02;9.30;;;7.43;;
13090;SDS011;6611;52.604;13.438;2022-11-04T20:39:05;11.60;;;8.27;;
13090;SDS011;6611;52.604;13.438;2022-11-04T20:44:08;10.90;;;7.97;;
13090;SDS011;6611;52.604;13.438;2022-11-04T20:49:11;12.93;;;8.67;;
13090;SDS011;6611;52.604;13.438;2022-11-04T20:54:13;13.73;;;8.70;;
13090;SDS011;6611;52.604;13.438;2022-11-04T20:59:15;11.43;;;7.73;;
13090;SDS011;6611;52.604;13.438;2022-11-04T21:04:21;10.97;;;8.60;;
13090;SDS011;6611;52.604;13.438;2022-11-04T21:09:23;12.73;;;8.13;;
13090;SDS011;6611;52.604;13.438;2022-11-04T21:14:25;10.80;;;8.13;;
13090;SDS011;6611;52.604;13.438;2022-11-04T21:19:27;11.97;;;8.63;;
13090;SDS011;6611;52.604;13.438;2022-11-04T21:24:29;12.87;;;8.40;;
13090;SDS011;6611;52.604;13.438;2022-11-04T21:29:34;10.43;;;7.67;;
13090;SDS011;6611;52.604;13.438;2022-11-04T21:34:37;11.73;;;8.20;;
13090;SDS011;6611;52.604;13.438;2022-11-04T21:39:39;14.07;;;8.90;;
13090;SDS011;6611;52.604;13.438;2022-11-04T21:44:41;10.93;;;8.17;;
13090;SDS011;6611;52.604;13.438;2022-11-04T21:49:44;11.97;;;8.77;;
13090;SDS011;6611;52.604;13.438;2022-11-04T21:54:45;13.13;;;8.47;;
13090;SDS011;6611;52.604;13.438;2022-11-04T21:59:47;12.60;;;8.77;;
13090;SDS011;6611;52.604;13.438;2022-11-04T22:04:50;13.80;;;8.77;;
13090;SDS011;6611;52.604;13.438;2022-11-04T22:09:51;12.00;;;8.00;;
13090;SDS011;6611;52.604;13.438;2022-11-04T22:14:53;14.13;;;8.77;;
13090;SDS011;6611;52.604;13.438;2022-11-04T22:19:56;12.20;;;8.73;;
13090;SDS011;6611;52.604;13.438;2022-11-04T22:24:57;13.90;;;9.00;;
13090;SDS011;6611;52.604;13.438;2022-11-04T22:30:03;14.03;;;9.17;;
13090;SDS011;6611;52.604;13.438;2022-11-04T22:35:07;15.33;;;9.03;;
13090;SDS011;6611;52.604;13.438;2022-11-04T22:40:09;13.20;;;9.40;;
13090;SDS011;6611;52.604;13.438;2022-11-04T22:45:11;14.43;;;9.33;;
13090;SDS011;6611;52.604;13.438;2022-11-04T22:50:14;14.27;;;8.70;;
13090;SDS011;6611;52.604;13.438;2022-11-04T22:55:16;12.43;;;8.57;;
13090;SDS011;6611;52.604;13.438;2022-11-04T23:00:17;12.73;;;8.27;;
13090;SDS011;6611;52.604;13.438;2022-11-04T23:05:20;13.73;;;8.73;;
13090;SDS011;6611;52.604;13.438;2022-11-04T23:10:22;11.50;;;8.30;;
13090;SDS011;6611;52.604;13.438;2022-11-04T23:15:57;12.53;;;8.43;;
13090;SDS011;6611;52.604;13.438;2022-11-04T23:21:18;11.33;;;8.20;;
13090;SDS011;6611;52.604;13.438;2022-11-04T23:26:38;11.70;;;7.83;;
13090;SDS011;6611;52.604;13.438;2022-11-04T23:31:41;12.00;;;7.57;;
13090;SDS011;6611;52.604;13.438;2022-11-04T23:36:44;9.90;;;7.77;;
13090;SDS011;6611;52.604;13.438;2022-11-04T23:42:03;10.60;;;7.43;;
13090;SDS011;6611;52.604;13.438;2022-11-04T23:47:17;10.70;;;7.20;;
13090;SDS011;6611;52.604;13.438;2022-11-04T23:52:37;10.17;;;6.83;;
13090;SDS011;6611;52.604;13.438;2022-11-04T23:57:56;9.00;;;6.67;;
